Central City, PA

11:54 AM EDT on July 28, 2016 (GMT -0400)
SHADE | | Change Station

Elev 2195 ft 40.12 °N, 78.81 °W | Updated 15 minutes ago

Light Rain
Light Rain
75.9 °F
Feels Like 77 °F
N
0.0
Wind Variable Wind from West

Today
High -- | Low -- °F
--% Chance of Precip.
Yesterday
High -- | Low -- °F
Precip. -- in
Pressure 30.00 in
Visibility 9.0 miles
Clouds Mostly Cloudy 1500 ft
Mostly Cloudy 2700 ft
Heat Index 77 °F
Dew Point 70 °F
Humidity 83%
Rainfall 0.00 in
Snow Depth Not available.
6:10 AM 8:32 PM
Waning Crescent, 31% visible
SPECI KJST 281540Z AUTO 23005KT 9SM -RA BKN015 BKN027 24/19 A3000 RMK AO2 RAB28 P0000 T02390194
Pressure 30.00 in
Visibility 9.0 miles
Clouds Mostly Cloudy 1500 ft
Mostly Cloudy 2700 ft
Heat Index 77 °F
Dew Point 70 °F
Humidity 83%
Rainfall 0.00 in
Snow Depth Not available.
6:10 AM 8:32 PM
Waning Crescent, 31% visible
SPECI KJST 281540Z AUTO 23005KT 9SM -RA BKN015 BKN027 24/19 A3000 RMK AO2 RAB28 P0000 T02390194

10-Day Weather Forecast

Almanac

Astronomy

Jul. 28, 2016 Rise Set
Actual Time
Civil Twilight
Nautical Twilight
Astronomical Twilight
Moon
Length of Visible Light
Length of Day
Tomorrow will be .
, % of the Moon is Illuminated

Today's Extremes

State Highs State Lows

Community

WunderPhotos

Upload Photos

1,928,140 photos uploaded!

WunderBlog® & News

Nearby

Air Quality

  Air Quality AQ Index Pollutant
Not available.

Snow Depth

Station Depth Elevation

Earthquake Activity

City Distance Mag. Time & Date
Minimum magnitude displayed is 2.5.

Coastal Water Temperatures

Place Temperature

Stations

Nearby Weather Stations

Station Location Temp. Windchill Dew Point Humidity Wind Precip. Elev Updated Type
                   

Watches & Warnings

There are currently no watches in effect.